Tuffy II — WDC3266 — position and weather

sailwx.info

Track history (hours):
 
Tides and Currents Weather Stations Pressure Air Temp Water Temp Dewpoint Dewpoint Depression Visibility Wind Speed Wind Dir Waves Ship Positions

Tuffy II

Owner: Seaway Co. of Catalina, Wilmington, CA. More information available from US FCC via Universal Licensing System and Coast Guard Vessel Documentation Center.

Last reported at 2017-Sep-19 16:24 UTC. Time now 2017-Sep-19 16:55 UTC.
Position N 33°46' W 118°13'.

; draft 2.2 m.

Type: Tug. MMSI: 367004930.

Date/timePositionNaut miles runAvg speedWind from/ knotsBaromVisibWave heightAir tempDewpointWater temp
2017-Sep-19 16:24N 33°46' W 118°13'0 0.0
2017-Sep-19 15:55N 33°46' W 118°13'  
2017-Sep-16 03:41N 33°46' W 118°13'0 1.1
2017-Sep-16 03:30N 33°46' W 118°13'4 7.2
2017-Sep-16 03:00N 33°43' W 118°11'5 8.9
2017-Sep-16 02:29N 33°39' W 118°07'19 8.5
2017-Sep-16 00:16N 33°24' W 117°54'2 8.5
2017-Sep-16 00:01N 33°23' W 117°52'4 8.2
2017-Sep-15 23:30N 33°19' W 117°50'4 8.2
2017-Sep-15 23:00N 33°16' W 117°47'4 8.2
2017-Sep-15 22:30N 33°12' W 117°44'4 8.3
2017-Sep-15 22:00N 33°09' W 117°41'4 8.5
2017-Sep-15 21:30N 33°06' W 117°38'4 8.9
2017-Sep-15 21:00N 33°02' W 117°35'5 9.1
2017-Sep-15 20:31N 32°59' W 117°31'5 9.0
2017-Sep-15 20:00N 32°55' W 117°28'4 8.7
2017-Sep-15 19:30N 32°52' W 117°25'4 8.3
2017-Sep-15 19:01N 32°48' W 117°22'4 8.2
2017-Sep-15 18:30N 32°45' W 117°20'4 7.9
2017-Sep-15 18:00N 32°41' W 117°17'4 7.2
2017-Sep-15 17:30N 32°39' W 117°14'4 8.4
2017-Sep-15 17:00N 32°43' W 117°13'5 8.5
2017-Sep-15 16:25N 32°40' W 117°08'0 0.1
2017-Sep-15 15:48N 32°40' W 117°08'2 5.5
2017-Sep-15 15:30N 32°41' W 117°09'3 5.6
2017-Sep-15 15:00N 32°43' W 117°11'3 5.0
2017-Sep-15 14:30N 32°42' W 117°14'4 7.6
2017-Sep-15 14:01N 32°38' W 117°14'2 3.8
2017-Sep-15 13:31N 32°38' W 117°16'2 5.0
2017-Sep-15 13:01N 32°39' W 117°18'3 5.2
2017-Sep-15 12:30N 32°42' W 117°20'3 5.1
2017-Sep-15 12:00N 32°44' W 117°21'2 5.0
2017-Sep-15 11:31N 32°46' W 117°23'2 4.8
2017-Sep-15 11:01N 32°48' W 117°24'2 4.8
2017-Sep-15 10:31N 32°50' W 117°26'2 4.8
2017-Sep-15 10:01N 32°52' W 117°27'2 4.7
2017-Sep-15 09:31N 32°54' W 117°28'2 4.9
2017-Sep-15 09:01N 32°56' W 117°30'3 5.1
2017-Sep-15 08:31N 32°58' W 117°32'3 5.1
2017-Sep-15 08:01N 33°01' W 117°34'2 4.6
2017-Sep-15 07:31N 33°02' W 117°35'2 4.7
2017-Sep-15 07:01N 33°04' W 117°37'2 4.6
2017-Sep-15 06:31N 33°06' W 117°39'3 5.2
2017-Sep-15 06:00N 33°08' W 117°40'3 5.3
2017-Sep-15 05:31N 33°10' W 117°42'3 5.2
2017-Sep-15 05:01N 33°13' W 117°44'3 5.5
2017-Sep-15 04:31N 33°15' W 117°46'3 5.8
2017-Sep-15 04:01N 33°17' W 117°48'3 6.0
2017-Sep-15 03:31N 33°20' W 117°50'3 6.1
2017-Sep-15 03:00N 33°22' W 117°52'3 6.4
2017-Sep-15 02:30N 33°24' W 117°55'3 6.7
2017-Sep-15 02:00N 33°27' W 117°58'3 6.6
2017-Sep-15 01:30N 33°29' W 118°00'11 7.2
2017-Sep-14 23:58N 33°37' W 118°09'4 7.6
2017-Sep-14 23:30N 33°40' W 118°13'3 7.0
2017-Sep-14 23:01N 33°42' W 118°15'2 3.3
2017-Sep-14 22:30N 33°44' W 118°16'1 2.8
2017-Sep-14 22:00N 33°43' W 118°15'3 6.8
2017-Sep-14 21:30N 33°46' W 118°13'0 0.9
2017-Sep-14 21:00N 33°46' W 118°13'0 0.0
2017-Sep-14 20:30N 33°46' W 118°13'0 0.0
2017-Sep-13 23:26N 33°46' W 118°13'0 0.2
2017-Sep-13 23:01N 33°46' W 118°13'2 3.1
2017-Sep-13 22:30N 33°45' W 118°14'0 0.2
2017-Sep-13 22:00N 33°45' W 118°14'0 0.7
2017-Sep-13 21:30N 33°45' W 118°14'1 2.7
2017-Sep-13 21:00N 33°46' W 118°13'  
Track history (hours):
 
Tides and Currents Weather Stations Pressure Air Temp Water Temp Dewpoint Dewpoint Depression Visibility Wind Speed Wind Dir Waves Ship Positions

Tuffy II

Owner: Seaway Co. of Catalina, Wilmington, CA. More information available from US FCC via Universal Licensing System and Coast Guard Vessel Documentation Center.

Last reported at 2017-Sep-19 16:24 UTC. Time now 2017-Sep-19 16:55 UTC.
Position N 33°46' W 118°13'.

; draft 2.2 m.

Type: Tug. MMSI: 367004930.

Date/timePositionNaut miles runAvg speedWind from/ knotsBaromVisibWave heightAir tempDewpointWater temp
2017-Sep-19 16:24N 33°46' W 118°13'0 0.0
2017-Sep-19 15:55N 33°46' W 118°13'  
2017-Sep-16 03:41N 33°46' W 118°13'0 1.1
2017-Sep-16 03:30N 33°46' W 118°13'4 7.2
2017-Sep-16 03:00N 33°43' W 118°11'5 8.9
2017-Sep-16 02:29N 33°39' W 118°07'19 8.5
2017-Sep-16 00:16N 33°24' W 117°54'2 8.5
2017-Sep-16 00:01N 33°23' W 117°52'4 8.2
2017-Sep-15 23:30N 33°19' W 117°50'4 8.2
2017-Sep-15 23:00N 33°16' W 117°47'4 8.2
2017-Sep-15 22:30N 33°12' W 117°44'4 8.3
2017-Sep-15 22:00N 33°09' W 117°41'4 8.5
2017-Sep-15 21:30N 33°06' W 117°38'4 8.9
2017-Sep-15 21:00N 33°02' W 117°35'5 9.1
2017-Sep-15 20:31N 32°59' W 117°31'5 9.0
2017-Sep-15 20:00N 32°55' W 117°28'4 8.7
2017-Sep-15 19:30N 32°52' W 117°25'4 8.3
2017-Sep-15 19:01N 32°48' W 117°22'4 8.2
2017-Sep-15 18:30N 32°45' W 117°20'4 7.9
2017-Sep-15 18:00N 32°41' W 117°17'4 7.2
2017-Sep-15 17:30N 32°39' W 117°14'4 8.4
2017-Sep-15 17:00N 32°43' W 117°13'5 8.5
2017-Sep-15 16:25N 32°40' W 117°08'0 0.1
2017-Sep-15 15:48N 32°40' W 117°08'2 5.5
2017-Sep-15 15:30N 32°41' W 117°09'3 5.6
2017-Sep-15 15:00N 32°43' W 117°11'3 5.0
2017-Sep-15 14:30N 32°42' W 117°14'4 7.6
2017-Sep-15 14:01N 32°38' W 117°14'2 3.8
2017-Sep-15 13:31N 32°38' W 117°16'2 5.0
2017-Sep-15 13:01N 32°39' W 117°18'3 5.2
2017-Sep-15 12:30N 32°42' W 117°20'3 5.1
2017-Sep-15 12:00N 32°44' W 117°21'2 5.0
2017-Sep-15 11:31N 32°46' W 117°23'2 4.8
2017-Sep-15 11:01N 32°48' W 117°24'2 4.8
2017-Sep-15 10:31N 32°50' W 117°26'2 4.8
2017-Sep-15 10:01N 32°52' W 117°27'2 4.7
2017-Sep-15 09:31N 32°54' W 117°28'2 4.9
2017-Sep-15 09:01N 32°56' W 117°30'3 5.1
2017-Sep-15 08:31N 32°58' W 117°32'3 5.1
2017-Sep-15 08:01N 33°01' W 117°34'2 4.6
2017-Sep-15 07:31N 33°02' W 117°35'2 4.7
2017-Sep-15 07:01N 33°04' W 117°37'2 4.6
2017-Sep-15 06:31N 33°06' W 117°39'3 5.2
2017-Sep-15 06:00N 33°08' W 117°40'3 5.3
2017-Sep-15 05:31N 33°10' W 117°42'3 5.2
2017-Sep-15 05:01N 33°13' W 117°44'3 5.5
2017-Sep-15 04:31N 33°15' W 117°46'3 5.8
2017-Sep-15 04:01N 33°17' W 117°48'3 6.0
2017-Sep-15 03:31N 33°20' W 117°50'3 6.1
2017-Sep-15 03:00N 33°22' W 117°52'3 6.4
2017-Sep-15 02:30N 33°24' W 117°55'3 6.7
2017-Sep-15 02:00N 33°27' W 117°58'3 6.6
2017-Sep-15 01:30N 33°29' W 118°00'11 7.2
2017-Sep-14 23:58N 33°37' W 118°09'4 7.6
2017-Sep-14 23:30N 33°40' W 118°13'3 7.0
2017-Sep-14 23:01N 33°42' W 118°15'2 3.3
2017-Sep-14 22:30N 33°44' W 118°16'1 2.8
2017-Sep-14 22:00N 33°43' W 118°15'3 6.8
2017-Sep-14 21:30N 33°46' W 118°13'0 0.9
2017-Sep-14 21:00N 33°46' W 118°13'0 0.0
2017-Sep-14 20:30N 33°46' W 118°13'0 0.0
2017-Sep-13 23:26N 33°46' W 118°13'0 0.2
2017-Sep-13 23:01N 33°46' W 118°13'2 3.1
2017-Sep-13 22:30N 33°45' W 118°14'0 0.2
2017-Sep-13 22:00N 33°45' W 118°14'0 0.7
2017-Sep-13 21:30N 33°45' W 118°14'1 2.7
2017-Sep-13 21:00N 33°46' W 118°13'  

Dump ship's entire track history